Taurus — WDB5562 — position and weather

sailwx.info

Track history (hours):
 
Tides and Currents Weather Stations Pressure Air Temp Water Temp Dewpoint Dewpoint Depression Visibility Wind Speed Wind Dir Waves Ship Positions

Taurus

Owner: Kirby Offshore Marine, LLC, Staten Island, NY. More information available from US FCC via Universal Licensing System and Coast Guard Vessel Documentation Center.

Last reported at 2016-Apr-08 12:04 UTC. Time now 2016-May-28 11:55 UTC.
Position N 40°38' W 074°10'.
Warning: this ship's position is 49 days out of date.

Length 24 m.

Type: Ship (hazmat cat B). MMSI: 366910990.

Date/timePositionNaut miles runAvg speedWind from/ knotsBaromVisibWave heightAir tempDewpointWater temp
2016-Apr-08 12:04N 40°38' W 074°10'0 0.1
2016-Apr-08 11:33N 40°39' W 074°10'0 0.0
2016-Apr-08 10:33N 40°39' W 074°10'0 0.0
2016-Apr-08 09:33N 40°39' W 074°10'0 0.0
2016-Apr-08 08:33N 40°39' W 074°10'0 0.0
2016-Apr-08 07:33N 40°39' W 074°10'0 0.0
2016-Apr-08 06:33N 40°39' W 074°10'0 0.0
2016-Apr-08 05:33N 40°39' W 074°10'0 0.0
2016-Apr-08 04:33N 40°39' W 074°10'0 0.0
2016-Apr-08 03:33N 40°39' W 074°10'0 0.0
2016-Apr-08 02:33N 40°39' W 074°10'0 0.0
2016-Apr-08 01:33N 40°39' W 074°10'0 0.0
2016-Apr-08 00:33N 40°39' W 074°10'0 0.0
2016-Apr-07 23:33N 40°39' W 074°10'0 0.0
2016-Apr-07 22:33N 40°39' W 074°10'0 0.0
2016-Apr-07 21:33N 40°39' W 074°10'0 0.0
2016-Apr-07 20:33N 40°39' W 074°10'0 0.0
2016-Apr-07 19:33N 40°39' W 074°10'0 0.0
2016-Apr-07 18:33N 40°39' W 074°10'1 0.7
2016-Apr-07 17:33N 40°38' W 074°09'1 0.7
2016-Apr-07 16:33N 40°39' W 074°10'0 0.0
2016-Apr-07 15:33N 40°39' W 074°10'0 0.0
2016-Apr-07 14:33N 40°39' W 074°10'0 0.0
2016-Apr-07 13:33N 40°39' W 074°10'0 0.0
2016-Apr-07 12:33N 40°39' W 074°10'0 0.0
2016-Apr-07 11:33N 40°39' W 074°10'0 0.0
2016-Apr-07 10:33N 40°39' W 074°10'0 0.0
2016-Apr-07 09:33N 40°39' W 074°10'0 0.0
2016-Apr-07 08:33N 40°39' W 074°10'0 0.0
2016-Apr-07 07:33N 40°39' W 074°10'0 0.0
2016-Apr-07 06:33N 40°39' W 074°10'0 0.0
2016-Apr-07 05:33N 40°39' W 074°10'0 0.0
2016-Apr-07 04:33N 40°39' W 074°10'0 0.0
2016-Apr-07 03:33N 40°39' W 074°10'0 0.0
2016-Apr-07 02:33N 40°39' W 074°10'0 0.0
2016-Apr-07 01:33N 40°39' W 074°10'0 0.0
2016-Apr-07 00:33N 40°39' W 074°10'0 0.0
2016-Apr-06 23:33N 40°39' W 074°10'0 0.0
2016-Apr-06 22:33N 40°39' W 074°10'0 0.0
2016-Apr-06 21:33N 40°39' W 074°10'0 0.0
2016-Apr-06 20:33N 40°39' W 074°10'0 0.0
2016-Apr-06 19:33N 40°39' W 074°10'0 0.0
2016-Apr-06 18:33N 40°39' W 074°10'0 0.0
2016-Apr-06 17:31N 40°39' W 074°10'0 0.0
2016-Apr-06 16:30N 40°39' W 074°10'0 0.0
2016-Apr-06 15:33N 40°39' W 074°10'0 0.0
2016-Apr-06 14:33N 40°39' W 074°10'0 0.0
2016-Apr-06 13:33N 40°39' W 074°10'3 2.8
2016-Apr-06 12:33N 40°39' W 074°06'4 4.5
2016-Apr-06 11:33N 40°42' W 074°02'4 4.3
2016-Apr-06 10:33N 40°44' W 073°57'0 0.5
2016-Apr-06 09:33N 40°44' W 073°57'0 0.0
2016-Apr-06 08:33N 40°44' W 073°57'0 0.0
2016-Apr-06 07:33N 40°44' W 073°57'1 0.6
2016-Apr-06 06:33N 40°44' W 073°57'4 4.3
2016-Apr-06 05:33N 40°41' W 074°01'7 6.8
2016-Apr-06 04:33N 40°39' W 074°09'1 0.0
2016-Apr-05 02:33N 40°39' W 074°10'2 2.0
2016-Apr-05 01:33N 40°37' W 074°12'6 5.8
2016-Apr-05 00:33N 40°39' W 074°05'2 1.8
2016-Apr-04 23:33N 40°39' W 074°03'0 0.0
2016-Apr-04 22:33N 40°39' W 074°03'0 0.1
2016-Apr-04 21:33N 40°39' W 074°03'0 0.1
2016-Apr-04 20:33N 40°39' W 074°03'5 4.8
2016-Apr-04 19:33N 40°39' W 074°09'1 0.2
2016-Apr-04 16:33N 40°39' W 074°10'4 4.4
2016-Apr-04 15:33N 40°39' W 074°04'0 0.0
2016-Apr-04 14:33N 40°39' W 074°04'0 0.1
2016-Apr-04 13:33N 40°39' W 074°04'4 4.5
2016-Apr-04 12:33N 40°39' W 074°10'0 0.0
2016-Apr-04 11:33N 40°39' W 074°10'0 0.0
2016-Apr-04 10:33N 40°39' W 074°10'0 0.0
2016-Apr-04 09:33N 40°39' W 074°10'0 0.0
2016-Apr-04 08:33N 40°39' W 074°10'2 1.7
2016-Apr-04 07:11N 40°37' W 074°12'2 3.8
2016-Apr-04 06:33N 40°39' W 074°10'0 0.0
2016-Apr-04 05:33N 40°39' W 074°10'0 0.0
2016-Apr-04 04:33N 40°39' W 074°10'0 0.0
2016-Apr-04 03:33N 40°39' W 074°10'0 0.0
2016-Apr-04 02:33N 40°39' W 074°10'0 0.0
2016-Apr-04 01:33N 40°39' W 074°10'0 0.0
2016-Apr-04 00:33N 40°39' W 074°10'0 0.0
2016-Apr-03 23:33N 40°39' W 074°10'0 0.0
2016-Apr-03 22:33N 40°39' W 074°10'0 0.0
2016-Apr-03 21:33N 40°39' W 074°10'0 0.1
2016-Apr-03 20:30N 40°39' W 074°10'0 0.1
2016-Apr-03 19:10N 40°39' W 074°10'0 0.1
2016-Apr-03 18:33N 40°38' W 074°10'0 0.0
2016-Apr-03 17:32N 40°38' W 074°10'0 0.0
2016-Apr-03 16:33N 40°38' W 074°10'0 0.0
2016-Apr-03 15:30N 40°38' W 074°10'0 0.0
2016-Apr-03 14:27N 40°38' W 074°10'0 0.0
2016-Apr-03 13:33N 40°38' W 074°10'0 0.0
2016-Apr-03 12:26N 40°38' W 074°10'0 0.0
2016-Apr-03 11:33N 40°38' W 074°10'2 0.4
2016-Apr-03 06:31N 40°37' W 074°12'4 4.6
2016-Apr-03 05:33N 40°39' W 074°07'2 2.4
2016-Apr-03 04:33N 40°38' W 074°10'0 0.0
2016-Apr-03 03:33N 40°38' W 074°10'0 0.0
2016-Apr-03 02:33N 40°38' W 074°10'0 0.0
2016-Apr-03 01:33N 40°38' W 074°10'1 1.1
2016-Apr-03 00:33N 40°39' W 074°11'1 1.1
2016-Apr-02 23:33N 40°38' W 074°10'0 0.0
2016-Apr-02 22:33N 40°38' W 074°10'0 0.0
2016-Apr-02 21:33N 40°38' W 074°10'0 0.4
2016-Apr-02 20:34N 40°39' W 074°10'5 5.5
2016-Apr-02 19:33N 40°40' W 074°03'0 0.4
2016-Apr-02 18:33N 40°40' W 074°03'0 0.1
2016-Apr-02 17:33N 40°40' W 074°03'0 0.0
2016-Apr-02 16:33N 40°40' W 074°03'0 0.0
2016-Apr-02 15:33N 40°40' W 074°03'0 0.0
2016-Apr-02 14:33N 40°40' W 074°03'0 0.0
2016-Apr-02 13:33N 40°40' W 074°03'0 0.0
2016-Apr-02 12:33N 40°40' W 074°03'0 0.0
2016-Apr-02 11:33N 40°40' W 074°03'0 0.1
2016-Apr-02 10:33N 40°40' W 074°03'0 0.0
2016-Apr-02 09:33N 40°40' W 074°03'0 0.0
2016-Apr-02 08:32N 40°40' W 074°03'0 0.0
2016-Apr-02 07:33N 40°40' W 074°03'0 0.1
2016-Apr-02 06:33N 40°40' W 074°03'0 0.1
2016-Apr-02 05:33N 40°40' W 074°03'0 0.0
2016-Apr-02 04:33N 40°40' W 074°03'0 0.0
2016-Apr-02 03:33N 40°40' W 074°03'0 0.0
2016-Apr-02 02:33N 40°40' W 074°03'0 0.0
2016-Apr-02 01:33N 40°40' W 074°03'0 0.0
2016-Apr-02 00:33N 40°40' W 074°03'0 0.1
2016-Apr-01 23:33N 40°40' W 074°03'6 4.5
2016-Apr-01 22:17N 40°38' W 074°10'0 0.3
2016-Apr-01 20:26N 40°39' W 074°09'3 2.5
2016-Apr-01 19:22N 40°39' W 074°06'1 0.1
2016-Apr-01 11:19N 40°39' W 074°07'0 0.0
2016-Apr-01 06:21N 40°39' W 074°07'2 0.8
2016-Apr-01 04:24N 40°39' W 074°09'2 0.2
2016-Mar-31 18:33N 40°39' W 074°07'3 1.7
2016-Mar-31 17:05N 40°39' W 074°10'1 0.3
2016-Mar-31 12:33N 40°40' W 074°09'3 3.0
2016-Mar-31 11:33N 40°42' W 074°07'7 6.5
2016-Mar-31 10:33N 40°37' W 074°12'0 0.1
2016-Mar-31 03:31N 40°37' W 074°12'6 6.5
2016-Mar-31 02:34N 40°42' W 074°07'4 3.9
2016-Mar-31 01:33N 40°39' W 074°04'6 2.1
2016-Mar-30 22:32N 40°37' W 074°12'2 0.8
2016-Mar-30 20:27N 40°36' W 074°12'4 4.8
2016-Mar-30 19:33N 40°39' W 074°08'1 1.5
2016-Mar-30 18:34N 40°39' W 074°10'0 0.0
2016-Mar-30 17:33N 40°38' W 074°10'0 0.0
2016-Mar-30 16:33N 40°38' W 074°10'0 0.0
2016-Mar-30 15:33N 40°38' W 074°10'0 0.0
2016-Mar-30 14:33N 40°38' W 074°10'0 0.0
2016-Mar-30 13:33N 40°38' W 074°10'0 0.0
2016-Mar-30 12:33N 40°38' W 074°10'0 0.0
2016-Mar-30 11:33N 40°38' W 074°10'0 0.0
2016-Mar-30 10:33N 40°38' W 074°10'0 0.0
2016-Mar-30 09:33N 40°38' W 074°10'5 4.2
2016-Mar-30 08:25N 40°34' W 074°13'2 0.8
2016-Mar-30 05:30N 40°33' W 074°15'7 7.2
2016-Mar-30 04:33N 40°39' W 074°11'1 0.8
2016-Mar-30 03:33N 40°39' W 074°10'0 0.0
2016-Mar-30 02:33N 40°39' W 074°10'0 0.0
2016-Mar-30 01:33N 40°39' W 074°10'0 0.0
2016-Mar-30 00:19N 40°39' W 074°10'0 0.0
2016-Mar-29 22:33N 40°39' W 074°10'0 0.0
2016-Mar-29 21:33N 40°39' W 074°10'0 0.0
2016-Mar-29 20:33N 40°39' W 074°10'0 0.0
2016-Mar-29 19:33N 40°39' W 074°10'0 0.0
2016-Mar-29 18:33N 40°39' W 074°10'1 0.9
2016-Mar-29 17:33N 40°38' W 074°09'2 1.6
2016-Mar-29 16:33N 40°39' W 074°07'3 2.5
2016-Mar-29 15:33N 40°39' W 074°10'0 0.0
2016-Mar-29 14:33N 40°39' W 074°10'0 0.0
2016-Mar-29 13:33N 40°39' W 074°10'0 0.0
2016-Mar-29 12:33N 40°39' W 074°10'  
Track history (hours):
 
Tides and Currents Weather Stations Pressure Air Temp Water Temp Dewpoint Dewpoint Depression Visibility Wind Speed Wind Dir Waves Ship Positions

Taurus

Owner: Kirby Offshore Marine, LLC, Staten Island, NY. More information available from US FCC via Universal Licensing System and Coast Guard Vessel Documentation Center.

Last reported at 2016-Apr-08 12:04 UTC. Time now 2016-May-28 11:55 UTC.
Position N 40°38' W 074°10'.
Warning: this ship's position is 49 days out of date.

Length 24 m.

Type: Ship (hazmat cat B). MMSI: 366910990.

Date/timePositionNaut miles runAvg speedWind from/ knotsBaromVisibWave heightAir tempDewpointWater temp
2016-Apr-08 12:04N 40°38' W 074°10'0 0.1
2016-Apr-08 11:33N 40°39' W 074°10'0 0.0
2016-Apr-08 10:33N 40°39' W 074°10'0 0.0
2016-Apr-08 09:33N 40°39' W 074°10'0 0.0
2016-Apr-08 08:33N 40°39' W 074°10'0 0.0
2016-Apr-08 07:33N 40°39' W 074°10'0 0.0
2016-Apr-08 06:33N 40°39' W 074°10'0 0.0
2016-Apr-08 05:33N 40°39' W 074°10'0 0.0
2016-Apr-08 04:33N 40°39' W 074°10'0 0.0
2016-Apr-08 03:33N 40°39' W 074°10'0 0.0
2016-Apr-08 02:33N 40°39' W 074°10'0 0.0
2016-Apr-08 01:33N 40°39' W 074°10'0 0.0
2016-Apr-08 00:33N 40°39' W 074°10'0 0.0
2016-Apr-07 23:33N 40°39' W 074°10'0 0.0
2016-Apr-07 22:33N 40°39' W 074°10'0 0.0
2016-Apr-07 21:33N 40°39' W 074°10'0 0.0
2016-Apr-07 20:33N 40°39' W 074°10'0 0.0
2016-Apr-07 19:33N 40°39' W 074°10'0 0.0
2016-Apr-07 18:33N 40°39' W 074°10'1 0.7
2016-Apr-07 17:33N 40°38' W 074°09'1 0.7
2016-Apr-07 16:33N 40°39' W 074°10'0 0.0
2016-Apr-07 15:33N 40°39' W 074°10'0 0.0
2016-Apr-07 14:33N 40°39' W 074°10'0 0.0
2016-Apr-07 13:33N 40°39' W 074°10'0 0.0
2016-Apr-07 12:33N 40°39' W 074°10'0 0.0
2016-Apr-07 11:33N 40°39' W 074°10'0 0.0
2016-Apr-07 10:33N 40°39' W 074°10'0 0.0
2016-Apr-07 09:33N 40°39' W 074°10'0 0.0
2016-Apr-07 08:33N 40°39' W 074°10'0 0.0
2016-Apr-07 07:33N 40°39' W 074°10'0 0.0
2016-Apr-07 06:33N 40°39' W 074°10'0 0.0
2016-Apr-07 05:33N 40°39' W 074°10'0 0.0
2016-Apr-07 04:33N 40°39' W 074°10'0 0.0
2016-Apr-07 03:33N 40°39' W 074°10'0 0.0
2016-Apr-07 02:33N 40°39' W 074°10'0 0.0
2016-Apr-07 01:33N 40°39' W 074°10'0 0.0
2016-Apr-07 00:33N 40°39' W 074°10'0 0.0
2016-Apr-06 23:33N 40°39' W 074°10'0 0.0
2016-Apr-06 22:33N 40°39' W 074°10'0 0.0
2016-Apr-06 21:33N 40°39' W 074°10'0 0.0
2016-Apr-06 20:33N 40°39' W 074°10'0 0.0
2016-Apr-06 19:33N 40°39' W 074°10'0 0.0
2016-Apr-06 18:33N 40°39' W 074°10'0 0.0
2016-Apr-06 17:31N 40°39' W 074°10'0 0.0
2016-Apr-06 16:30N 40°39' W 074°10'0 0.0
2016-Apr-06 15:33N 40°39' W 074°10'0 0.0
2016-Apr-06 14:33N 40°39' W 074°10'0 0.0
2016-Apr-06 13:33N 40°39' W 074°10'3 2.8
2016-Apr-06 12:33N 40°39' W 074°06'4 4.5
2016-Apr-06 11:33N 40°42' W 074°02'4 4.3
2016-Apr-06 10:33N 40°44' W 073°57'0 0.5
2016-Apr-06 09:33N 40°44' W 073°57'0 0.0
2016-Apr-06 08:33N 40°44' W 073°57'0 0.0
2016-Apr-06 07:33N 40°44' W 073°57'1 0.6
2016-Apr-06 06:33N 40°44' W 073°57'4 4.3
2016-Apr-06 05:33N 40°41' W 074°01'7 6.8
2016-Apr-06 04:33N 40°39' W 074°09'1 0.0
2016-Apr-05 02:33N 40°39' W 074°10'2 2.0
2016-Apr-05 01:33N 40°37' W 074°12'6 5.8
2016-Apr-05 00:33N 40°39' W 074°05'2 1.8
2016-Apr-04 23:33N 40°39' W 074°03'0 0.0
2016-Apr-04 22:33N 40°39' W 074°03'0 0.1
2016-Apr-04 21:33N 40°39' W 074°03'0 0.1
2016-Apr-04 20:33N 40°39' W 074°03'5 4.8
2016-Apr-04 19:33N 40°39' W 074°09'1 0.2
2016-Apr-04 16:33N 40°39' W 074°10'4 4.4
2016-Apr-04 15:33N 40°39' W 074°04'0 0.0
2016-Apr-04 14:33N 40°39' W 074°04'0 0.1
2016-Apr-04 13:33N 40°39' W 074°04'4 4.5
2016-Apr-04 12:33N 40°39' W 074°10'0 0.0
2016-Apr-04 11:33N 40°39' W 074°10'0 0.0
2016-Apr-04 10:33N 40°39' W 074°10'0 0.0
2016-Apr-04 09:33N 40°39' W 074°10'0 0.0
2016-Apr-04 08:33N 40°39' W 074°10'2 1.7
2016-Apr-04 07:11N 40°37' W 074°12'2 3.8
2016-Apr-04 06:33N 40°39' W 074°10'0 0.0
2016-Apr-04 05:33N 40°39' W 074°10'0 0.0
2016-Apr-04 04:33N 40°39' W 074°10'0 0.0
2016-Apr-04 03:33N 40°39' W 074°10'0 0.0
2016-Apr-04 02:33N 40°39' W 074°10'0 0.0
2016-Apr-04 01:33N 40°39' W 074°10'0 0.0
2016-Apr-04 00:33N 40°39' W 074°10'0 0.0
2016-Apr-03 23:33N 40°39' W 074°10'0 0.0
2016-Apr-03 22:33N 40°39' W 074°10'0 0.0
2016-Apr-03 21:33N 40°39' W 074°10'0 0.1
2016-Apr-03 20:30N 40°39' W 074°10'0 0.1
2016-Apr-03 19:10N 40°39' W 074°10'0 0.1
2016-Apr-03 18:33N 40°38' W 074°10'0 0.0
2016-Apr-03 17:32N 40°38' W 074°10'0 0.0
2016-Apr-03 16:33N 40°38' W 074°10'0 0.0
2016-Apr-03 15:30N 40°38' W 074°10'0 0.0
2016-Apr-03 14:27N 40°38' W 074°10'0 0.0
2016-Apr-03 13:33N 40°38' W 074°10'0 0.0
2016-Apr-03 12:26N 40°38' W 074°10'0 0.0
2016-Apr-03 11:33N 40°38' W 074°10'2 0.4
2016-Apr-03 06:31N 40°37' W 074°12'4 4.6
2016-Apr-03 05:33N 40°39' W 074°07'2 2.4
2016-Apr-03 04:33N 40°38' W 074°10'0 0.0
2016-Apr-03 03:33N 40°38' W 074°10'0 0.0
2016-Apr-03 02:33N 40°38' W 074°10'0 0.0
2016-Apr-03 01:33N 40°38' W 074°10'1 1.1
2016-Apr-03 00:33N 40°39' W 074°11'1 1.1
2016-Apr-02 23:33N 40°38' W 074°10'0 0.0
2016-Apr-02 22:33N 40°38' W 074°10'0 0.0
2016-Apr-02 21:33N 40°38' W 074°10'0 0.4
2016-Apr-02 20:34N 40°39' W 074°10'5 5.5
2016-Apr-02 19:33N 40°40' W 074°03'0 0.4
2016-Apr-02 18:33N 40°40' W 074°03'0 0.1
2016-Apr-02 17:33N 40°40' W 074°03'0 0.0
2016-Apr-02 16:33N 40°40' W 074°03'0 0.0
2016-Apr-02 15:33N 40°40' W 074°03'0 0.0
2016-Apr-02 14:33N 40°40' W 074°03'0 0.0
2016-Apr-02 13:33N 40°40' W 074°03'0 0.0
2016-Apr-02 12:33N 40°40' W 074°03'0 0.0
2016-Apr-02 11:33N 40°40' W 074°03'0 0.1
2016-Apr-02 10:33N 40°40' W 074°03'0 0.0
2016-Apr-02 09:33N 40°40' W 074°03'0 0.0
2016-Apr-02 08:32N 40°40' W 074°03'0 0.0
2016-Apr-02 07:33N 40°40' W 074°03'0 0.1
2016-Apr-02 06:33N 40°40' W 074°03'0 0.1
2016-Apr-02 05:33N 40°40' W 074°03'0 0.0
2016-Apr-02 04:33N 40°40' W 074°03'0 0.0
2016-Apr-02 03:33N 40°40' W 074°03'0 0.0
2016-Apr-02 02:33N 40°40' W 074°03'0 0.0
2016-Apr-02 01:33N 40°40' W 074°03'0 0.0
2016-Apr-02 00:33N 40°40' W 074°03'0 0.1
2016-Apr-01 23:33N 40°40' W 074°03'6 4.5
2016-Apr-01 22:17N 40°38' W 074°10'0 0.3
2016-Apr-01 20:26N 40°39' W 074°09'3 2.5
2016-Apr-01 19:22N 40°39' W 074°06'1 0.1
2016-Apr-01 11:19N 40°39' W 074°07'0 0.0
2016-Apr-01 06:21N 40°39' W 074°07'2 0.8
2016-Apr-01 04:24N 40°39' W 074°09'2 0.2
2016-Mar-31 18:33N 40°39' W 074°07'3 1.7
2016-Mar-31 17:05N 40°39' W 074°10'1 0.3
2016-Mar-31 12:33N 40°40' W 074°09'3 3.0
2016-Mar-31 11:33N 40°42' W 074°07'7 6.5
2016-Mar-31 10:33N 40°37' W 074°12'0 0.1
2016-Mar-31 03:31N 40°37' W 074°12'6 6.5
2016-Mar-31 02:34N 40°42' W 074°07'4 3.9
2016-Mar-31 01:33N 40°39' W 074°04'6 2.1
2016-Mar-30 22:32N 40°37' W 074°12'2 0.8
2016-Mar-30 20:27N 40°36' W 074°12'4 4.8
2016-Mar-30 19:33N 40°39' W 074°08'1 1.5
2016-Mar-30 18:34N 40°39' W 074°10'0 0.0
2016-Mar-30 17:33N 40°38' W 074°10'0 0.0
2016-Mar-30 16:33N 40°38' W 074°10'0 0.0
2016-Mar-30 15:33N 40°38' W 074°10'0 0.0
2016-Mar-30 14:33N 40°38' W 074°10'0 0.0
2016-Mar-30 13:33N 40°38' W 074°10'0 0.0
2016-Mar-30 12:33N 40°38' W 074°10'0 0.0
2016-Mar-30 11:33N 40°38' W 074°10'0 0.0
2016-Mar-30 10:33N 40°38' W 074°10'0 0.0
2016-Mar-30 09:33N 40°38' W 074°10'5 4.2
2016-Mar-30 08:25N 40°34' W 074°13'2 0.8
2016-Mar-30 05:30N 40°33' W 074°15'7 7.2
2016-Mar-30 04:33N 40°39' W 074°11'1 0.8
2016-Mar-30 03:33N 40°39' W 074°10'0 0.0
2016-Mar-30 02:33N 40°39' W 074°10'0 0.0
2016-Mar-30 01:33N 40°39' W 074°10'0 0.0
2016-Mar-30 00:19N 40°39' W 074°10'0 0.0
2016-Mar-29 22:33N 40°39' W 074°10'0 0.0
2016-Mar-29 21:33N 40°39' W 074°10'0 0.0
2016-Mar-29 20:33N 40°39' W 074°10'0 0.0
2016-Mar-29 19:33N 40°39' W 074°10'0 0.0
2016-Mar-29 18:33N 40°39' W 074°10'1 0.9
2016-Mar-29 17:33N 40°38' W 074°09'2 1.6
2016-Mar-29 16:33N 40°39' W 074°07'3 2.5
2016-Mar-29 15:33N 40°39' W 074°10'0 0.0
2016-Mar-29 14:33N 40°39' W 074°10'0 0.0
2016-Mar-29 13:33N 40°39' W 074°10'0 0.0
2016-Mar-29 12:33N 40°39' W 074°10'  

Dump ship's entire track history